KMDH Weather | Aviation | SIU

Home
Southern Illinois University

CONTACT

SIU.EDU

Aviation - Weather

College of Applied Sciences and Arts

KMDH Weather

NOTICE: Although all weather products are taken from the National Weather Service, this data should be used only as a supplement to a formal weather briefing.

Last Updated: Monday, May 10th, 2021, 2:13 pm
Information on this page is updated every 5 minutes.


METARS

KMDH 101852Z 06007KT 10SM FEW110 15/05 A3016 RMK AO2 SLP215 T01500050

KMDH 101752Z 06007KT 10SM FEW120 14/05 A3015 RMK AO2 SLP209 T01440050 10150

KMDH 101652Z 10SM CLR 14/06 A3016 RMK AO2 SLP212 T01440061

KMWA 101845Z 36005KT 10SM SCT110 14/04 A3015

KMWA 101745Z 07009KT 20SM SCT043 14/05 A3014

KMWA 101645Z 06011G16KT 20SM CLR 14/05 A3015

KCGI 101853Z 02013G18KT 10SM CLR 16/06 A3013 RMK AO2 SLP202 T01610061

KCGI 101753Z 04011G19KT 10SM CLR 16/05 A3012 RMK AO2 SLP200 T01560050 10161

KCGI 101653Z 02009KT 10SM CLR 16/07 A3013 RMK AO2 SLP204 T01560067

KSAR 101844Z AUTO 00000KT 10SM SCT043 13/05 A3019 RMK AO2

KSAR 101824Z AUTO 04005KT 10SM SCT040 14/06 A3018 RMK AO2

KSAR 101804Z AUTO 03004KT 10SM SCT040 14/06 A3018 RMK AO2

KSAR 101727Z AUTO 03003KT 10SM SCT038 SCT044 13/06 A3019 RMK AO2

KSAR 101704Z AUTO 01006G14KT 10SM SCT034 BKN041 13/07 A3018 RMK AO2

KSAR 101644Z AUTO 05008KT 10SM SCT036 14/07 A3018 RMK AO2

KSAR 101624Z AUTO 03009KT 10SM CLR 13/06 A3018 RMK AO2

KFAM 101856Z AUTO 02008KT 10SM CLR 13/05 A3016 RMK AO2 SLP223 T01330050

KFAM 101756Z AUTO 06004KT 10SM CLR 13/05 A3017 RMK AO2 SLP227 T01280050 10133

KFAM 101656Z AUTO 10009KT 10SM CLR 13/04 A3017 RMK AO2 SLP229 T01330044

KMVN 101856Z AUTO 06007KT 10SM CLR 15/04 A3016 RMK AO2 SLP218 T01500044

KMVN 101756Z AUTO VRB06KT 10SM BKN046 15/05 A3017 RMK AO2 SLP221 T01500050 10156

KMVN 101656Z AUTO 01007KT 330V060 10SM CLR 15/04 A3017 RMK AO2 SLP221 T01500044

KHSB 101855Z AUTO 08007G14KT 10SM CLR 15/00 A3015 RMK AO2 T01490003

KHSB 101835Z AUTO 07006KT 10SM CLR 15/01 A3015 RMK AO2 T01510008

KHSB 101815Z AUTO 09005G14KT 10SM CLR 15/01 A3015 RMK AO2 T01460013

KCIR 101855Z AUTO 06006KT 10SM CLR 16/06 A3012 RMK AO2 T01580062

KCIR 101835Z AUTO 06009KT 10SM CLR 16/06 A3012 RMK AO2 T01550064

KCIR 101815Z AUTO 08008KT 10SM CLR 15/07 A3012 RMK AO2 T01540067

KPAH 101853Z 06011G16KT 10SM CLR 16/05 A3010 RMK AO2 SLP193 T01610050

KFAM 101856Z AUTO 02008KT 10SM CLR 13/05 A3016 RMK AO2 SLP223 T01330050

KBLV 101856Z AUTO 00000KT 10SM FEW180 15/04 A3016 RMK AO2 SLP218 T01520040 $

KTBN 101841Z AUTO 04007KT 10SM SCT028 SCT150 13/06 A3015 RMK AO2 SLP214 $

KVIH 101853Z AUTO 36006KT 10SM FEW035 14/06 A3017 RMK AO2 SLP217 T01390056

KENL 101855Z AUTO 08006KT 10SM SCT047 15/04 A3016 RMK AO2 T01500037

KENL 101835Z AUTO 00000KT 10SM SCT047 15/05 A3015 RMK AO2 T01510051

KENL 101815Z AUTO 00000KT 10SM SCT047 15/05 A3016 RMK AO2 T01470045

KMTO 101853Z AUTO 26004KT 10SM CLR 16/06 A3014 RMK AO2 SLP207 T01610056 $

KFWC 101855Z AUTO 04003KT 10SM CLR 15/03 A3014 RMK AO1 T01460030

KFWC 101835Z AUTO 01004KT 10SM CLR 15/04 A3014 RMK AO1 T01490043

KFWC 101815Z AUTO 00000KT 10SM CLR 15/03 A3015 RMK AO1 T01470034

KCUL 101902Z AUTO 02010KT 10SM CLR 15/04 A3014 RMK AO2

KCUL 101837Z AUTO 10SM CLR 16/05 A3013 RMK AO2

KCUL 101819Z AUTO 01005KT 10SM CLR 15/06 A3014 RMK AO2

KEVV 101854Z 36009KT 10SM CLR 17/04 A3013 RMK AO2 SLP203 T01720039 $

KCEY 101855Z AUTO 03009G14KT 10SM BKN029 14/07 A3011 RMK AO1

KCEY 101835Z AUTO 03007KT 10SM SCT029 14/08 A3011 RMK AO1

KCEY 101815Z AUTO 05007KT 10SM SCT025 14/07 A3011 RMK AO1

KHOP 101856Z AUTO 04008KT 10SM BKN027 OVC160 14/09 A3010 RMK AO2 SLP195

KHOP 101833Z AUTO 07007KT 10SM BKN025 BKN150 14/08 A3009 RMK AO2 CIG 025V150

KBYH 101858Z 02007KT 10SM OVC026 14/08 A3013

KARG 101906Z AUTO 05008KT 8SM BKN029 16/09 A3013 RMK AO2

KARG 101856Z AUTO 03006KT 10SM SCT027 16/09 A3013 RMK AO2 SLP204 T01560094

KARG 101849Z AUTO 02011KT 10SM SCT027 16/09 A3013 RMK AO2

KJBR 101853Z AUTO 06009KT 10SM OVC026 14/09 A3013 RMK AO2 SLP201 T01390089 $

KALN 101850Z VRB03KT 10SM FEW035 16/05 A3017

KALN 101850Z VRB03KT 10SM FEW035 16/05 A3017

KCOU 101854Z 31005KT 10SM CLR 16/03 A3016 RMK AO2 SLP215 T01610033

KAJG 101835Z AUTO 02006KT 10SM CLR 15/03 A3015 RMK AO2 T01500026

KAJG 101815Z AUTO 06007G14KT 10SM CLR 15/03 A3015 RMK AO2 T01490025

KDEC 101854Z 33005KT 10SM CLR 17/03 A3014 RMK AO2 SLP207 T01720028

KIJX 101835Z AUTO 00000KT 10SM SCT065 16/03 A3015 RMK AO2 T01610031

KIJX 101815Z AUTO 00000KT 10SM CLR 16/03 A3015 RMK AO2 T01610029


TAFS

KEVV 101723Z 1018/1118 05007KT P6SM FEW030 SCT100

        FM110000 VRB04KT P6SM SCT100


Winds Aloft



Pilot Reports

No pilot reports found for area.



Area Forecast



Significant Weather

WAUS44 KKCI 101445 DFWZ WA 101445 AIRMET ZULU UPDT 2 FOR ICE AND FRZLVL VALID UNTIL 102100 AIRMET ICE...OK AR SD NE KS MO IL IN KY FROM BFF TO 20NNW OBH TO 30NNW MCI TO 20SW UIN TO 20SE STL TO 50SE TTH TO 50W LOZ TO 40SE TUL TO 50W LBL TO GLD TO BFF MOD ICE BTN FRZLVL AND FL190. FRZLVL 070-110. CONDS CONTG BYD 21Z THRU 03Z. OTLK VALID 2100-0300Z...ICE OK TX AR TN ND SD NE KS MN IA MO WI LM MI IL IN KY BOUNDED BY 70NW RAP-30ENE ANW-20SSW OBH-20NW STL-HNN-50WSW BKW-20NW MEM-50W LBL-GLD-50NNW BFF-70NW RAP MOD ICE BTN FRZLVL AND FL190. FRZLVL 070-110. CONDS CONTG THRU 03Z. FRZLVL...RANGING FROM 075-155 ACRS AREA MULT FRZLVL 080-120 BOUNDED BY 50SW GLD-50ESE GCK-30ENE ICT- 70SE ICT-50NE TCC-30ESE TBE-50W LBL-50SW GLD 080 ALG 40ESE TBE-40WSW LBL-LBL 120 ALG 20NW TXO-20W OKC-30ENE GQO
WAUS43 KKCI 101445 CHIZ WA 101445 AIRMET ZULU UPDT 2 FOR ICE AND FRZLVL VALID UNTIL 102100 AIRMET ICE...SD NE KS MO IL IN KY OK AR FROM BFF TO 20NNW OBH TO 30NNW MCI TO 20SW UIN TO 20SE STL TO 50SE TTH TO 50W LOZ TO 40SE TUL TO 50W LBL TO GLD TO BFF MOD ICE BTN FRZLVL AND FL190. FRZLVL 070-110. CONDS CONTG BYD 21Z THRU 03Z. OTLK VALID 2100-0300Z...ICE ND SD NE KS MN IA MO WI LM MI IL IN KY OK TX AR TN BOUNDED BY 70NW RAP-30ENE ANW-20SSW OBH-20NW STL-HNN-50WSW BKW-20NW MEM-50W LBL-GLD-50NNW BFF-70NW RAP MOD ICE BTN FRZLVL AND FL190. FRZLVL 070-110. CONDS CONTG THRU 03Z. FRZLVL...RANGING FROM 020-120 ACRS AREA MULT FRZLVL 080-120 BOUNDED BY 50SW GLD-50ESE GCK-30ENE ICT- 70SE ICT-50NE TCC-30ESE TBE-50W LBL-50SW GLD MULT FRZLVL 070-110 BOUNDED BY 30ENE STL-HNN-40W BKW-30ESE IIU-50SE STL-30ENE STL 040 ALG 50NNE MOT-60SE MOT-60SSW FAR-40SW EAU-20NW ORD-50SE GRR-20SW DXO 080 ALG LBL-70W ICT-40SE STL-20S HNN
WAUS44 KKCI 101644 AAA DFWT WA 101644 AMD AIRMET TANGO UPDT 3 FOR TURB VALID UNTIL 102100 AIRMET TURB...OK AR TN AL SD NE KS MN IA MO IL IN KY FROM 80ESE PIR TO CVG TO 50SSW BNA TO 40NNW DYR TO 40SE RZC TO 30W GCK TO GLD TO 60NNW BFF TO 80ESE PIR MOD TURB BTN FL240 AND FL370. CONDS CONTG BYD 21Z THRU 03Z. OTLK VALID 2100-0300Z...TURB TX LA AND CSTL WTRS BOUNDED BY 30NE CWK-60SSE LFK-120SSE LCH-120SSW LCH-100SE PSX- 80E BRO-90W BRO-40E LRD-40SSW SAT-30S JCT-30NE CWK MOD TURB BTN FL300 AND FL420. CONDS DVLPG 00-03Z. CONDS CONTG THRU 03Z.
WAUS43 KKCI 101644 AAA CHIT WA 101644 AMD AIRMET TANGO UPDT 3 FOR TURB VALID UNTIL 102100 AIRMET TURB...SD NE KS MN IA MO IL IN KY OK AR TN AL FROM 80ESE PIR TO CVG TO 50SSW BNA TO 40NNW DYR TO 40SE RZC TO 30W GCK TO GLD TO 60NNW BFF TO 80ESE PIR MOD TURB BTN FL240 AND FL370. CONDS CONTG BYD 21Z THRU 03Z. OTLK VALID 2100-0300Z...TURB SD MN IA WI LM MI LH IL IN BOUNDED BY 40WSW GRB-30ESE ECK-FWA-CVG-60W FSD-40WSW GRB MOD TURB BTN FL200 AND FL340. CONDS CONTG THRU 03Z.